Terminal Aerodrome Forecast
Issued by NWS Omaha/Valley, NE

Home | Current Version | Previous Version | Text Only | Print | Product List | Glossary On
Versions: 1 2 3 4 5 6 7 8 9 10 11 12 13 14 15 16 17 18 19 20 21 22 23 24 25 26 27 28 29 30 31 32 33 34 35 36 37 38 39 40 41 42 43 44 45 46 47 48 49 50
385
FTUS43 KOAX 172038 AAT
TAFLNK
TAF AMD
KLNK 172038Z 1721/1818 08009KT P6SM SCT020 BKN035
      TEMPO 1721/1724 4SM -SHRA BR BKN020
     FM180200 06007KT P6SM OVC025
     FM180500 08005KT 4SM BR OVC008
     FM180900 09004KT 2SM BR OVC004
     FM181600 09008KT P6SM VCSH OVC008=

USA.gov is the U.S. government's official web portal to all federal, state and local government web resources and services.